KWST/WST METAR and TAF weather

Enter ICAO airport designator
Station Type Date Time Source
KWST METAR 2023/02/05 13:53 UTC NOAA

KWST 051353Z AUTO 24012G19KT 10SM CLR 04/M03 A3026 RMK AO2 SLP246 T00391033


Station Type Date Time Source
KWST Decoded METAR 2023/02/05 13:53 UTC NOAA

WESTERLY STATE AIRPORT, RI, United States (KWST) 41-21N 071-48W 21M
Feb 05, 2023 - 08:53 AM EST / 2023.02.05 1353 UTC
Wind: from the WSW (240 degrees) at 14 MPH (12 KT) gusting to 22 MPH (19 KT):0
Visibility: 10 mile(s):0
Sky conditions: clear
Temperature: 39.0 F (3.9 C)
Dew Point: 26.1 F (-3.3 C)
Relative Humidity: 59%
Pressure (altimeter): 30.26 in. Hg (1024 hPa)
ob: KWST 051353Z AUTO 24012G19KT 10SM CLR 04/M03 A3026 RMK AO2 SLP246 T00391033
cycle: 14

Station Type Date Time Source
KWST TAF UTC NOAA

Error!

Example: see airport list